Time;durP1;ratioP1;P1;durP2;ratioP2;P2;SDS_P1;SDS_P2;PMS_P1;PMS_P2;Temp;Humidity;BMP_temperature;BMP_pressure;BME280_temperature;BME280_humidity;BME280_pressure;Samples;Min_cycle;Max_cycle;Signal;HPM_P1;HPM_P2
2023/07/26 00:01:46;;;;;;;4.85;3.05;;;16.30;96.10;;;;;;6210716;23;20012;-78
2023/07/26 00:04:11;;;;;;;5.10;3.17;;;16.30;96.20;;;;;;6212861;23;20004;-78
2023/07/26 00:06:37;;;;;;;5.30;3.90;;;16.40;96.30;;;;;;6212723;23;20415;-78
2023/07/26 00:09:03;;;;;;;3.90;3.58;;;16.40;96.40;;;;;;6212604;23;20028;-78
2023/07/26 00:11:29;;;;;;;4.32;3.53;;;16.40;96.50;;;;;;6212978;23;20005;-77
2023/07/26 00:13:55;;;;;;;5.60;3.08;;;16.40;96.70;;;;;;6185895;23;20001;-78
2023/07/26 00:16:21;;;;;;;3.97;3.58;;;16.40;96.80;;;;;;6212160;23;20000;-78
2023/07/26 00:18:46;;;;;;;4.82;4.30;;;16.40;96.90;;;;;;6212674;23;20004;-77
2023/07/26 00:21:12;;;;;;;4.80;4.03;;;16.40;97.00;;;;;;6212415;23;20004;-78
2023/07/26 00:23:37;;;;;;;7.32;5.32;;;16.40;97.10;;;;;;6212205;23;20004;-77
2023/07/26 00:26:03;;;;;;;5.63;4.03;;;16.40;97.10;;;;;;6210375;23;20011;-77
2023/07/26 00:28:29;;;;;;;4.63;3.65;;;16.40;97.10;;;;;;6210839;23;20012;-78
2023/07/26 00:30:54;;;;;;;4.40;4.05;;;16.40;97.20;;;;;;6210136;23;20008;-78
2023/07/26 00:33:20;;;;;;;5.03;3.80;;;16.40;97.20;;;;;;6212249;23;20083;-76
2023/07/26 00:35:45;;;;;;;4.32;3.90;;;16.40;97.30;;;;;;6212237;23;19996;-77
2023/07/26 00:38:11;;;;;;;5.72;4.93;;;16.40;97.40;;;;;;6212592;23;20012;-77
2023/07/26 00:40:37;;;;;;;5.05;3.10;;;16.40;97.50;;;;;;6212585;23;20070;-77
2023/07/26 00:43:05;;;;;;;4.22;3.83;;;16.40;97.60;;;;;;6212475;23;20034;-76
2023/07/26 00:45:33;;;;;;;7.97;4.10;;;16.40;97.70;;;;;;6212292;23;20055;-77
2023/07/26 00:47:58;;;;;;;4.90;4.40;;;16.30;97.80;;;;;;6212306;23;20008;-77
2023/07/26 00:50:25;;;;;;;4.85;3.95;;;16.30;97.90;;;;;;6212197;23;20000;-77
2023/07/26 00:52:51;;;;;;;4.53;4.13;;;16.30;97.90;;;;;;6212326;23;20438;-77
2023/07/26 00:55:17;;;;;;;4.28;3.63;;;16.20;97.90;;;;;;6212307;23;20048;-77
2023/07/26 00:57:45;;;;;;;4.60;4.20;;;16.10;98.00;;;;;;6212750;23;20061;-77
2023/07/26 01:00:12;;;;;;;4.18;3.78;;;16.00;98.20;;;;;;6185202;23;20013;-77
2023/07/26 01:02:37;;;;;;;5.05;4.60;;;15.90;98.30;;;;;;6212210;23;20012;-77
2023/07/26 01:05:04;;;;;;;5.53;4.65;;;15.80;98.50;;;;;;6212271;23;20074;-77
2023/07/26 01:07:51;;;;;;;7.20;5.25;;;15.80;98.60;;;;;;6212779;23;20303;-77
2023/07/26 01:10:31;;;;;;;4.78;4.25;;;15.70;98.80;;;;;;6212202;23;20000;-77
2023/07/26 01:13:09;;;;;;;4.68;3.83;;;15.60;98.90;;;;;;6211759;23;20012;-77
2023/07/26 01:15:40;;;;;;;4.38;3.97;;;15.40;99.00;;;;;;6211722;23;20001;-77
2023/07/26 01:18:10;;;;;;;5.05;4.53;;;15.40;99.20;;;;;;6212322;23;20055;-78
2023/07/26 01:20:36;;;;;;;5.65;5.13;;;15.30;99.30;;;;;;6212183;23;20374;-77
2023/07/26 01:23:01;;;;;;;5.10;4.70;;;15.20;99.40;;;;;;6212396;23;20051;-77
2023/07/26 01:25:27;;;;;;;5.93;4.53;;;15.20;99.50;;;;;;6212433;23;20092;-77
2023/07/26 01:27:52;;;;;;;6.93;5.35;;;15.10;99.60;;;;;;6211938;23;20009;-77
2023/07/26 01:30:18;;;;;;;7.65;4.95;;;15.00;99.70;;;;;;6211464;23;20071;-78
2023/07/26 01:32:49;;;;;;;5.13;4.53;;;15.00;99.90;;;;;;6185357;23;20001;-77
2023/07/26 01:35:15;;;;;;;7.18;6.00;;;14.90;99.90;;;;;;6211935;23;20004;-77
2023/07/26 01:37:41;;;;;;;6.38;5.85;;;14.80;99.90;;;;;;6212305;23;20012;-78
2023/07/26 01:40:08;;;;;;;6.97;6.38;;;14.80;99.90;;;;;;6211910;23;20318;-77
2023/07/26 01:42:34;;;;;;;7.45;6.25;;;14.80;99.90;;;;;;6212177;23;20001;-77
2023/07/26 01:45:03;;;;;;;7.72;6.40;;;14.70;99.90;;;;;;6211404;23;20115;-77
2023/07/26 01:47:29;;;;;;;6.72;6.10;;;14.70;99.90;;;;;;6211972;23;19996;-78
2023/07/26 01:49:55;;;;;;;5.78;5.28;;;14.70;99.90;;;;;;6212080;23;19997;-77
2023/07/26 01:52:23;;;;;;;6.72;6.13;;;14.60;99.90;;;;;;6211797;23;20012;-78
2023/07/26 01:54:48;;;;;;;6.93;6.10;;;14.60;99.90;;;;;;6212077;23;20008;-77
2023/07/26 01:57:14;;;;;;;6.00;5.50;;;14.50;99.90;;;;;;6211886;23;20434;-77
2023/07/26 01:59:39;;;;;;;6.65;5.53;;;14.50;99.90;;;;;;6211659;23;20005;-77
2023/07/26 02:02:05;;;;;;;6.93;6.32;;;14.50;99.90;;;;;;6211893;23;20016;-77
2023/07/26 02:04:30;;;;;;;6.88;5.82;;;14.50;99.90;;;;;;6212127;23;20005;-78
2023/07/26 02:06:56;;;;;;;5.72;5.15;;;14.40;99.90;;;;;;6212073;23;20004;-77
2023/07/26 02:09:22;;;;;;;8.18;6.10;;;14.40;99.90;;;;;;6211693;23;20072;-78
2023/07/26 02:11:49;;;;;;;6.95;6.25;;;14.40;99.90;;;;;;6212215;23;20020;-78
2023/07/26 02:14:15;;;;;;;6.88;5.68;;;14.40;99.90;;;;;;6211773;23;20063;-77
2023/07/26 02:16:41;;;;;;;6.68;6.07;;;14.30;99.90;;;;;;6185415;23;20426;-78
2023/07/26 02:19:06;;;;;;;5.90;5.40;;;14.30;99.90;;;;;;6211740;23;20008;-77
2023/07/26 02:21:32;;;;;;;7.22;5.75;;;14.20;99.90;;;;;;6211959;23;20015;-77
2023/07/26 02:23:58;;;;;;;6.35;5.75;;;14.20;99.90;;;;;;6212273;23;20011;-78
2023/07/26 02:26:23;;;;;;;5.53;5.03;;;14.20;99.90;;;;;;6211178;23;20008;-77
2023/07/26 02:28:49;;;;;;;7.95;7.25;;;14.20;99.90;;;;;;6211581;23;20643;-79
2023/07/26 02:31:14;;;;;;;8.02;7.32;;;14.10;99.90;;;;;;6211784;23;20000;-78
2023/07/26 02:33:40;;;;;;;7.15;6.55;;;14.10;99.90;;;;;;6212343;23;20008;-77
2023/07/26 02:36:05;;;;;;;8.02;7.20;;;14.10;99.90;;;;;;6211799;23;20007;-77
2023/07/26 02:38:31;;;;;;;8.15;7.45;;;14.00;99.90;;;;;;6211968;23;20414;-77
2023/07/26 02:40:56;;;;;;;7.63;6.90;;;14.00;99.90;;;;;;6211104;23;20008;-77
2023/07/26 02:43:22;;;;;;;8.68;7.63;;;14.00;99.90;;;;;;6211415;23;20304;-77
2023/07/26 02:45:48;;;;;;;7.30;6.65;;;13.90;99.90;;;;;;6211478;23;20011;-77
2023/07/26 02:48:13;;;;;;;7.60;6.90;;;13.90;99.90;;;;;;6211356;23;20054;-78
2023/07/26 02:50:39;;;;;;;8.10;7.10;;;13.80;99.90;;;;;;6184491;23;20016;-77
2023/07/26 02:53:04;;;;;;;9.38;8.23;;;13.80;99.90;;;;;;6210918;23;20040;-77
2023/07/26 02:55:30;;;;;;;8.90;8.07;;;13.80;99.90;;;;;;6210576;23;20435;-77
2023/07/26 02:57:55;;;;;;;9.10;8.00;;;13.70;99.90;;;;;;6210145;23;20004;-77
2023/07/26 03:00:21;;;;;;;8.35;7.10;;;13.70;99.90;;;;;;6211058;23;20004;-77
2023/07/26 03:02:46;;;;;;;9.07;8.20;;;13.70;99.90;;;;;;6211448;23;19996;-77
2023/07/26 03:05:12;;;;;;;7.63;6.90;;;13.70;99.90;;;;;;6184989;23;20020;-77
2023/07/26 03:07:37;;;;;;;8.85;8.05;;;13.60;99.90;;;;;;6211895;23;20001;-78
2023/07/26 03:10:03;;;;;;;9.48;8.65;;;13.60;99.90;;;;;;6211120;23;20011;-77
2023/07/26 03:12:29;;;;;;;10.35;8.65;;;13.60;99.90;;;;;;6211645;23;20665;-78
2023/07/26 03:14:54;;;;;;;9.48;8.65;;;13.60;99.90;;;;;;6211389;23;20005;-77
2023/07/26 03:17:20;;;;;;;10.10;9.10;;;13.50;99.90;;;;;;6211600;23;19997;-78
2023/07/26 03:19:46;;;;;;;10.45;9.45;;;13.50;99.90;;;;;;6211584;23;20493;-77
2023/07/26 03:22:11;;;;;;;10.05;9.05;;;13.50;99.90;;;;;;6211505;23;20001;-77
2023/07/26 03:24:37;;;;;;;10.77;9.68;;;13.50;99.90;;;;;;6211048;23;20445;-77
2023/07/26 03:27:02;;;;;;;10.10;9.20;;;13.40;99.90;;;;;;6211346;23;20437;-77
2023/07/26 03:29:28;;;;;;;9.95;9.13;;;13.40;99.90;;;;;;6211590;23;20004;-77
2023/07/26 03:31:53;;;;;;;10.38;9.48;;;13.40;99.90;;;;;;6210994;23;20391;-77
2023/07/26 03:34:19;;;;;;;11.77;8.60;;;13.40;99.90;;;;;;6211127;23;20007;-77
2023/07/26 03:36:48;;;;;;;9.50;8.60;;;13.30;99.90;;;;;;6211886;23;20525;-77
2023/07/26 03:39:13;;;;;;;9.95;8.95;;;13.30;99.90;;;;;;6212386;23;20009;-77
2023/07/26 03:41:39;;;;;;;10.05;9.05;;;13.30;99.90;;;;;;6213117;23;20009;-77
2023/07/26 03:44:04;;;;;;;11.25;9.55;;;13.30;99.90;;;;;;6213145;23;20010;-77
2023/07/26 03:46:30;;;;;;;11.20;10.20;;;13.30;99.90;;;;;;6213094;23;19997;-77
2023/07/26 03:48:56;;;;;;;9.63;8.82;;;13.30;99.90;;;;;;6212797;23;20078;-77
2023/07/26 03:51:21;;;;;;;10.68;9.68;;;13.20;99.90;;;;;;6212876;23;20079;-77
2023/07/26 03:53:47;;;;;;;11.48;10.38;;;13.20;99.90;;;;;;6212565;23;20012;-77
2023/07/26 03:56:12;;;;;;;10.70;9.70;;;13.20;99.90;;;;;;6212763;23;19997;-77
2023/07/26 03:58:38;;;;;;;11.20;9.57;;;13.20;99.90;;;;;;6212671;23;20079;-77
2023/07/26 04:01:03;;;;;;;10.15;9.15;;;13.20;99.90;;;;;;6212735;23;20004;-77
2023/07/26 04:03:29;;;;;;;10.70;9.70;;;13.20;99.90;;;;;;6213168;23;20009;-77
2023/07/26 04:05:54;;;;;;;10.30;9.30;;;13.20;99.90;;;;;;6212269;23;20753;-77
2023/07/26 04:08:20;;;;;;;9.50;8.70;;;13.20;99.90;;;;;;6212197;23;20005;-77
2023/07/26 04:10:46;;;;;;;11.30;10.20;;;13.20;99.90;;;;;;6212889;23;20415;-77
2023/07/26 04:13:11;;;;;;;9.93;9.02;;;13.20;99.90;;;;;;6212763;23;20430;-76
2023/07/26 04:15:38;;;;;;;11.88;10.65;;;13.20;99.90;;;;;;6212569;23;20322;-77
2023/07/26 04:18:03;;;;;;;11.70;10.60;;;13.20;99.90;;;;;;6212643;23;20744;-77
2023/07/26 04:20:29;;;;;;;14.40;10.07;;;13.30;99.90;;;;;;6213052;23;20004;-77
2023/07/26 04:22:54;;;;;;;10.77;9.75;;;13.40;99.90;;;;;;6212432;23;20030;-77
2023/07/26 04:25:20;;;;;;;11.80;10.70;;;13.40;99.90;;;;;;6212764;23;20004;-77
2023/07/26 04:27:45;;;;;;;12.88;11.57;;;13.50;99.90;;;;;;6212768;23;20044;-77
2023/07/26 04:30:11;;;;;;;12.20;9.52;;;13.60;99.90;;;;;;6186237;23;20043;-77
2023/07/26 04:32:37;;;;;;;11.15;10.05;;;13.60;99.90;;;;;;6213013;23;20008;-77
2023/07/26 04:35:02;;;;;;;12.63;11.35;;;13.70;99.90;;;;;;6212370;23;20059;-77
2023/07/26 04:37:28;;;;;;;12.23;10.65;;;13.70;99.90;;;;;;6212519;23;20076;-77
2023/07/26 04:39:53;;;;;;;11.35;10.27;;;13.70;99.90;;;;;;6212618;23;20004;-77
2023/07/26 04:42:19;;;;;;;13.02;10.32;;;13.80;99.90;;;;;;6212454;23;20523;-77
2023/07/26 04:44:45;;;;;;;11.95;10.57;;;13.70;99.90;;;;;;6212599;23;20005;-78
2023/07/26 04:47:12;;;;;;;11.13;10.13;;;13.80;99.90;;;;;;6212285;23;20410;-77
2023/07/26 04:49:37;;;;;;;11.77;10.77;;;13.80;99.90;;;;;;6185709;23;20013;-77
2023/07/26 04:52:03;;;;;;;12.68;11.45;;;13.80;99.90;;;;;;6211952;23;20059;-77
2023/07/26 04:54:29;;;;;;;13.27;11.82;;;13.80;99.90;;;;;;6212261;23;20015;-77
2023/07/26 04:56:55;;;;;;;11.15;10.15;;;13.80;99.90;;;;;;6212348;23;20407;-76
2023/07/26 04:59:20;;;;;;;12.57;11.25;;;13.70;99.90;;;;;;6211767;23;20076;-77
2023/07/26 05:01:46;;;;;;;13.90;12.50;;;13.80;99.90;;;;;;6185876;23;20098;-76
2023/07/26 05:04:12;;;;;;;13.20;11.43;;;13.80;99.90;;;;;;6212464;23;20008;-77
2023/07/26 05:06:37;;;;;;;12.95;11.38;;;13.70;99.90;;;;;;6211507;23;19996;-77
2023/07/26 05:09:04;;;;;;;13.50;12.15;;;13.80;99.90;;;;;;6212131;23;20009;-77
2023/07/26 05:11:30;;;;;;;11.13;10.02;;;13.80;99.90;;;;;;6211913;23;20063;-77
2023/07/26 05:13:56;;;;;;;11.88;10.77;;;13.80;99.90;;;;;;6212123;23;20012;-77
2023/07/26 05:16:22;;;;;;;11.00;9.90;;;13.80;99.90;;;;;;6212441;23;20000;-77
2023/07/26 05:18:47;;;;;;;11.10;9.40;;;13.90;99.90;;;;;;6212296;23;20008;-77
2023/07/26 05:21:13;;;;;;;11.88;10.88;;;13.90;99.90;;;;;;6211584;23;20008;-77
2023/07/26 05:23:39;;;;;;;16.75;13.85;;;14.00;99.90;;;;;;6212437;23;20105;-77
2023/07/26 05:26:04;;;;;;;13.98;12.55;;;14.00;99.90;;;;;;6211920;23;20024;-77
2023/07/26 05:28:30;;;;;;;10.52;9.48;;;14.00;99.90;;;;;;6211837;23;20054;-76
2023/07/26 05:30:56;;;;;;;14.35;12.95;;;14.10;99.90;;;;;;6212285;23;20012;-75
2023/07/26 05:33:22;;;;;;;12.48;11.18;;;14.20;99.90;;;;;;6212169;23;20593;-76
2023/07/26 05:35:48;;;;;;;11.52;10.40;;;14.30;99.90;;;;;;6212177;23;20034;-75
2023/07/26 05:38:13;;;;;;;13.82;12.57;;;14.40;99.90;;;;;;6212189;23;20031;-76
2023/07/26 05:40:39;;;;;;;10.35;9.45;;;14.50;99.90;;;;;;6212242;23;20009;-76
2023/07/26 05:43:04;;;;;;;11.05;9.95;;;14.60;99.90;;;;;;6211830;23;20000;-76
2023/07/26 05:45:30;;;;;;;10.63;9.68;;;14.60;99.90;;;;;;6212273;23;20055;-75
2023/07/26 05:47:56;;;;;;;10.45;9.45;;;14.70;99.90;;;;;;6211556;23;20032;-76
2023/07/26 05:50:22;;;;;;;10.73;9.38;;;14.70;99.90;;;;;;6184869;23;20434;-76
2023/07/26 05:52:47;;;;;;;10.55;9.65;;;14.80;99.90;;;;;;6210960;23;20004;-76
2023/07/26 05:55:13;;;;;;;11.45;10.38;;;14.80;99.90;;;;;;6211599;23;20075;-76
2023/07/26 05:57:38;;;;;;;10.65;9.70;;;14.80;99.90;;;;;;6211863;23;20005;-76
2023/07/26 06:00:05;;;;;;;10.95;10.00;;;14.90;99.90;;;;;;6211463;23;20088;-76
2023/07/26 06:02:30;;;;;;;13.35;12.15;;;14.90;99.90;;;;;;6212031;23;19997;-76
2023/07/26 06:04:56;;;;;;;12.32;11.10;;;15.00;99.90;;;;;;6211355;23;20001;-76
2023/07/26 06:07:25;;;;;;;10.65;9.75;;;15.10;99.90;;;;;;6211883;23;20001;-76
2023/07/26 06:09:50;;;;;;;12.13;10.88;;;15.10;99.90;;;;;;6211894;23;20015;-76
2023/07/26 06:12:16;;;;;;;13.07;10.70;;;15.30;99.90;;;;;;6211802;23;20375;-76
2023/07/26 06:14:41;;;;;;;10.20;9.20;;;15.40;99.90;;;;;;6211983;23;20001;-77
2023/07/26 06:17:07;;;;;;;11.88;10.77;;;15.60;99.90;;;;;;6185023;23;20798;-76
2023/07/26 06:19:32;;;;;;;10.02;9.05;;;15.80;99.90;;;;;;6211777;23;20418;-76
2023/07/26 06:21:59;;;;;;;11.95;10.73;;;16.10;99.90;;;;;;6211808;23;20001;-76
2023/07/26 06:24:25;;;;;;;11.60;10.48;;;16.30;99.90;;;;;;6185326;23;20008;-76
2023/07/26 06:26:54;;;;;;;11.50;10.40;;;16.60;99.90;;;;;;6211696;23;20419;-75
2023/07/26 06:29:20;;;;;;;11.23;10.20;;;16.80;99.90;;;;;;6211498;23;20433;-75
2023/07/26 06:31:46;;;;;;;13.63;11.38;;;16.90;99.90;;;;;;6211612;23;20001;-76
2023/07/26 06:34:11;;;;;;;12.40;11.05;;;17.00;99.90;;;;;;6211197;23;20362;-76
2023/07/26 06:36:37;;;;;;;10.80;9.60;;;17.00;99.90;;;;;;6211804;23;20068;-76
2023/07/26 06:39:03;;;;;;;11.55;10.43;;;17.10;99.90;;;;;;6184992;23;20005;-76
2023/07/26 06:41:28;;;;;;;12.07;10.60;;;17.10;99.90;;;;;;6210886;23;20419;-76
2023/07/26 06:43:54;;;;;;;10.88;9.68;;;17.10;99.90;;;;;;6210794;23;20000;-76
2023/07/26 06:46:20;;;;;;;13.20;10.82;;;17.10;99.90;;;;;;6210666;23;20007;-79
2023/07/26 06:48:45;;;;;;;12.88;9.95;;;17.20;99.90;;;;;;6210365;23;20274;-79
2023/07/26 06:51:11;;;;;;;13.13;11.82;;;17.20;99.90;;;;;;6210746;23;20023;-79
2023/07/26 06:53:36;;;;;;;11.63;9.93;;;17.10;99.90;;;;;;6210855;23;20020;-79
2023/07/26 06:56:02;;;;;;;12.82;11.30;;;17.10;99.90;;;;;;6211193;23;20058;-80
2023/07/26 06:58:27;;;;;;;10.85;9.85;;;17.10;99.90;;;;;;6211723;23;20011;-79
2023/07/26 07:00:55;;;;;;;10.98;9.88;;;17.10;99.90;;;;;;6211629;23;20078;-79
2023/07/26 07:03:21;;;;;;;10.93;9.70;;;17.10;99.90;;;;;;6211099;23;20138;-77
2023/07/26 07:05:46;;;;;;;10.70;9.63;;;17.10;99.90;;;;;;6210954;23;20000;-77
2023/07/26 07:08:12;;;;;;;11.80;10.48;;;17.10;99.90;;;;;;6211330;23;20008;-77
2023/07/26 07:10:38;;;;;;;11.23;10.20;;;17.00;99.90;;;;;;6211546;23;20005;-78
2023/07/26 07:13:04;;;;;;;13.48;10.68;;;17.00;99.90;;;;;;6186638;23;20005;-78
2023/07/26 07:15:30;;;;;;;12.70;11.38;;;17.00;99.90;;;;;;6213870;23;20016;-78
2023/07/26 07:17:55;;;;;;;15.50;13.02;;;16.90;99.90;;;;;;6212940;23;20043;-78
2023/07/26 07:20:21;;;;;;;13.80;12.50;;;16.80;99.90;;;;;;6213240;23;20103;-78
2023/07/26 07:22:46;;;;;;;13.05;11.63;;;16.70;99.90;;;;;;6213463;23;20032;-78
2023/07/26 07:25:12;;;;;;;16.98;13.52;;;16.60;99.90;;;;;;6212967;23;20156;-77
2023/07/26 07:27:38;;;;;;;12.50;11.20;;;16.50;99.90;;;;;;6213237;23;20081;-78
2023/07/26 07:30:04;;;;;;;11.30;10.00;;;16.50;99.90;;;;;;6213322;23;20083;-77
2023/07/26 07:32:29;;;;;;;13.02;11.77;;;16.40;99.90;;;;;;6212989;23;20040;-77
2023/07/26 07:34:55;;;;;;;14.73;11.43;;;16.30;99.90;;;;;;6208354;23;20670;-78
2023/07/26 07:37:20;;;;;;;7.60;6.78;;;16.10;99.90;;;;;;6211101;23;20000;-77
2023/07/26 07:39:46;;;;;;;9.75;5.88;;;16.00;99.90;;;;;;6213860;23;20014;-77
2023/07/26 07:42:12;;;;;;;4.90;3.88;;;15.80;99.90;;;;;;6212668;23;20001;-77
2023/07/26 07:44:37;;;;;;;4.75;3.70;;;15.70;99.90;;;;;;6212896;23;20008;-77
2023/07/26 07:47:03;;;;;;;6.28;3.42;;;15.50;99.90;;;;;;6211059;23;20466;-77
2023/07/26 07:49:29;;;;;;;5.97;2.78;;;15.40;99.90;;;;;;6211843;23;20011;-76
2023/07/26 07:51:54;;;;;;;3.42;2.63;;;15.30;99.90;;;;;;6212900;23;19997;-77
2023/07/26 07:54:20;;;;;;;5.78;2.97;;;15.20;99.90;;;;;;6212446;23;20020;-77
2023/07/26 07:56:47;;;;;;;4.78;3.00;;;15.20;99.90;;;;;;6212514;23;20004;-77
2023/07/26 07:59:13;;;;;;;4.43;2.72;;;15.20;99.90;;;;;;6210667;23;20013;-77
2023/07/26 08:01:39;;;;;;;4.07;3.28;;;15.10;99.90;;;;;;6212236;23;20015;-76
2023/07/26 08:04:04;;;;;;;3.58;2.75;;;15.20;99.90;;;;;;6212455;23;20111;-76
2023/07/26 08:06:32;;;;;;;2.72;2.53;;;15.20;99.90;;;;;;6212889;23;20009;-77
2023/07/26 08:08:57;;;;;;;2.85;2.22;;;15.20;99.90;;;;;;6212286;23;20005;-77
2023/07/26 08:11:23;;;;;;;4.53;2.95;;;15.30;99.90;;;;;;6212110;23;19997;-76
2023/07/26 08:13:48;;;;;;;2.05;1.83;;;15.50;99.90;;;;;;6212524;23;20079;-76
2023/07/26 08:16:14;;;;;;;4.32;2.58;;;15.60;99.90;;;;;;6212315;23;20000;-76
2023/07/26 08:18:40;;;;;;;3.92;2.75;;;15.70;99.90;;;;;;6212918;23;20000;-76
2023/07/26 08:21:05;;;;;;;4.93;2.92;;;15.80;99.90;;;;;;6210311;23;20004;-76
2023/07/26 08:23:31;;;;;;;3.53;2.53;;;15.90;99.90;;;;;;6212364;23;20004;-77
2023/07/26 08:26:05;;;;;;;3.15;2.40;;;16.00;99.90;;;;;;6212658;23;20075;-76
2023/07/26 08:28:31;;;;;;;4.53;2.08;;;16.00;99.90;;;;;;6212682;23;20016;-76
2023/07/26 08:30:57;;;;;;;3.95;2.22;;;16.10;99.90;;;;;;6184364;23;20000;-75
2023/07/26 08:33:23;;;;;;;3.05;2.30;;;16.20;99.90;;;;;;6211309;23;20051;-76
2023/07/26 08:35:49;;;;;;;3.20;2.22;;;16.30;99.90;;;;;;6212027;23;20005;-76
2023/07/26 08:38:14;;;;;;;2.40;2.20;;;16.40;99.90;;;;;;6211843;23;20087;-76
2023/07/26 08:40:47;;;;;;;3.95;3.28;;;16.50;99.90;;;;;;6212263;23;20592;-76
2023/07/26 08:43:15;;;;;;;3.63;2.88;;;16.60;99.90;;;;;;6210781;23;20445;-76
2023/07/26 08:45:44;;;;;;;2.90;2.22;;;16.70;99.90;;;;;;6211674;23;20436;-75
2023/07/26 08:48:11;;;;;;;3.08;2.78;;;16.70;99.90;;;;;;6212210;23;20005;-76
2023/07/26 08:50:39;;;;;;;3.00;2.42;;;16.80;99.90;;;;;;6185951;23;20000;-76
2023/07/26 08:53:06;;;;;;;4.00;2.78;;;16.90;99.90;;;;;;6190552;23;20020;-76
2023/07/26 08:55:32;;;;;;;2.63;2.42;;;17.00;99.90;;;;;;6212491;23;20011;-76
2023/07/26 08:58:02;;;;;;;3.78;2.38;;;17.10;99.90;;;;;;6211575;23;20004;-76
2023/07/26 09:00:29;;;;;;;2.83;2.25;;;17.10;99.90;;;;;;6212213;23;19997;-76
2023/07/26 09:02:57;;;;;;;2.67;2.47;;;17.20;99.90;;;;;;6209989;23;20028;-76
2023/07/26 09:05:22;;;;;;;2.75;2.30;;;17.30;99.90;;;;;;6209169;23;20000;-76
2023/07/26 09:07:51;;;;;;;2.92;2.60;;;17.30;99.90;;;;;;6212153;23;20123;-76
2023/07/26 09:10:26;;;;;;;4.78;4.22;;;17.40;99.90;;;;;;6211844;23;20028;-75
2023/07/26 09:12:51;;;;;;;5.40;4.95;;;17.50;99.90;;;;;;6211154;23;20004;-76
2023/07/26 09:15:19;;;;;;;5.50;4.97;;;17.50;99.90;;;;;;6208897;23;20005;-75
2023/07/26 09:17:45;;;;;;;6.00;5.40;;;17.60;99.90;;;;;;6212261;23;20001;-76
2023/07/26 09:20:26;;;;;;;8.50;7.55;;;17.60;99.90;;;;;;6210727;23;20449;-76
2023/07/26 09:23:12;;;;;;;7.20;6.47;;;17.80;99.90;;;;;;6210683;23;20004;-76
2023/07/26 09:25:43;;;;;;;7.43;6.72;;;17.90;99.90;;;;;;6210787;23;20007;-76
2023/07/26 09:28:13;;;;;;;9.35;8.30;;;18.00;99.90;;;;;;6208235;23;20004;-75
2023/07/26 09:30:40;;;;;;;9.80;8.20;;;18.10;99.90;;;;;;6210976;23;20039;-75
2023/07/26 09:33:08;;;;;;;10.65;8.65;;;18.20;99.90;;;;;;6211612;23;20028;-76
2023/07/26 09:35:49;;;;;;;8.55;7.78;;;18.40;99.90;;;;;;6210528;23;20001;-76
2023/07/26 09:38:16;;;;;;;10.23;7.90;;;18.70;99.90;;;;;;6209053;23;20066;-76
2023/07/26 09:40:42;;;;;;;8.90;7.97;;;18.90;99.90;;;;;;6211966;23;20422;-75
2023/07/26 09:43:07;;;;;;;11.52;10.02;;;19.00;99.90;;;;;;6210911;23;20011;-75
2023/07/26 09:45:33;;;;;;;10.65;9.35;;;19.20;99.90;;;;;;6210139;23;20011;-76
2023/07/26 09:48:17;;;;;;;10.15;8.70;;;19.20;99.90;;;;;;6208747;23;20013;-76
2023/07/26 09:50:45;;;;;;;8.20;7.32;;;19.40;99.90;;;;;;6211401;23;19997;-76
2023/07/26 09:53:11;;;;;;;9.93;8.35;;;19.50;99.90;;;;;;6209595;23;20032;-76
2023/07/26 09:55:37;;;;;;;8.82;7.93;;;19.50;99.90;;;;;;6209699;23;20015;-76
2023/07/26 09:58:04;;;;;;;9.07;7.55;;;19.70;99.90;;;;;;6209895;23;20000;-75
2023/07/26 10:00:31;;;;;;;7.30;6.43;;;19.80;99.90;;;;;;6211157;23;19996;-76
2023/07/26 10:03:01;;;;;;;9.15;8.10;;;19.70;99.80;;;;;;6210050;23;20005;-75
2023/07/26 10:05:29;;;;;;;9.90;7.82;;;19.80;99.90;;;;;;6210133;23;20083;-76
2023/07/26 10:07:56;;;;;;;11.52;8.77;;;19.70;99.60;;;;;;6209514;23;20004;-75
2023/07/26 10:10:22;;;;;;;9.25;8.25;;;19.80;99.70;;;;;;6208947;23;20008;-75
2023/07/26 10:12:52;;;;;;;8.60;6.95;;;19.80;99.80;;;;;;6211027;23;20083;-75
2023/07/26 10:15:21;;;;;;;9.48;7.45;;;20.10;99.80;;;;;;6211909;23;20050;-75
2023/07/26 10:17:47;;;;;;;8.88;7.90;;;20.30;99.60;;;;;;6210275;23;20005;-75
2023/07/26 10:20:14;;;;;;;8.75;7.70;;;20.50;98.90;;;;;;6209431;23;20080;-74
2023/07/26 10:22:41;;;;;;;8.25;7.45;;;20.40;98.60;;;;;;6209726;23;20011;-75
2023/07/26 10:25:08;;;;;;;9.15;7.35;;;20.20;98.40;;;;;;6210155;23;20007;-76
2023/07/26 10:27:34;;;;;;;9.93;7.35;;;19.90;98.60;;;;;;6209650;23;20013;-75
2023/07/26 10:30:00;;;;;;;6.85;5.05;;;19.70;98.70;;;;;;6209009;23;20016;-75
2023/07/26 10:32:26;;;;;;;6.93;5.03;;;19.40;98.50;;;;;;6209017;23;20005;-75
2023/07/26 10:34:56;;;;;;;4.97;4.35;;;19.00;98.30;;;;;;6211661;23;20026;-75
2023/07/26 10:37:22;;;;;;;5.70;4.75;;;18.70;98.70;;;;;;6211804;23;20493;-75
2023/07/26 10:39:49;;;;;;;5.50;4.35;;;18.50;98.90;;;;;;6211152;23;20032;-75
2023/07/26 10:42:29;;;;;;;7.15;4.93;;;18.40;99.10;;;;;;6210276;23;20004;-75
2023/07/26 10:45:03;;;;;;;8.60;5.85;;;18.40;99.60;;;;;;6211769;23;20074;-75
2023/07/26 10:47:29;;;;;;;7.38;4.10;;;18.30;99.90;;;;;;6213399;23;19996;-75
2023/07/26 10:50:03;;;;;;;6.40;4.18;;;18.40;99.90;;;;;;6213614;23;20054;-75
2023/07/26 10:52:36;;;;;;;5.30;4.28;;;18.40;99.90;;;;;;6213780;23;20335;-75
2023/07/26 10:55:26;;;;;;;4.10;3.65;;;18.60;99.90;;;;;;6187001;23;20009;-75
2023/07/26 10:57:52;;;;;;;8.35;4.80;;;18.70;99.90;;;;;;6213840;23;20001;-75
2023/07/26 11:00:31;;;;;;;5.50;4.32;;;18.80;99.90;;;;;;6213698;23;20007;-75
2023/07/26 11:03:01;;;;;;;6.43;4.68;;;18.80;99.90;;;;;;6186936;23;20004;-75
2023/07/26 11:05:29;;;;;;;5.38;4.82;;;18.80;99.80;;;;;;6187065;23;20004;-75
2023/07/26 11:08:01;;;;;;;5.07;4.20;;;18.90;99.80;;;;;;6213713;23;20381;-75
2023/07/26 11:10:34;;;;;;;6.32;4.82;;;18.90;99.70;;;;;;6186655;23;20080;-75
2023/07/26 11:13:16;;;;;;;6.45;4.90;;;19.10;99.90;;;;;;6186927;23;20038;-75
2023/07/26 11:15:47;;;;;;;6.80;4.95;;;19.30;99.70;;;;;;6187061;23;20008;-75
2023/07/26 11:18:15;;;;;;;7.40;5.65;;;19.60;99.30;;;;;;6186808;23;20012;-75
2023/07/26 11:20:46;;;;;;;7.97;5.40;;;19.60;99.20;;;;;;6187092;23;20032;-76
2023/07/26 11:23:22;;;;;;;6.78;4.80;;;19.60;99.20;;;;;;6186023;23;20453;-74
2023/07/26 11:25:51;;;;;;;6.53;4.82;;;19.60;99.10;;;;;;6213522;23;20001;-75
2023/07/26 11:28:17;;;;;;;6.97;4.75;;;19.70;99.00;;;;;;6213315;23;20333;-76
2023/07/26 11:30:48;;;;;;;5.47;4.70;;;19.80;99.00;;;;;;6213495;23;20067;-75
2023/07/26 11:33:33;;;;;;;6.93;4.97;;;20.10;98.90;;;;;;6213134;23;20000;-75
2023/07/26 11:36:01;;;;;;;6.53;5.35;;;20.20;98.40;;;;;;6186740;23;20004;-75
2023/07/26 11:38:27;;;;;;;5.63;5.07;;;20.20;98.10;;;;;;6186317;23;20001;-75
2023/07/26 11:40:54;;;;;;;7.85;5.38;;;20.20;98.20;;;;;;6186912;23;20011;-76
2023/07/26 11:43:20;;;;;;;7.25;5.82;;;20.20;98.20;;;;;;6213020;23;20066;-75
2023/07/26 11:45:46;;;;;;;5.13;3.55;;;20.20;97.90;;;;;;6186614;23;20005;-75
2023/07/26 11:48:14;;;;;;;5.20;3.50;;;20.40;97.80;;;;;;6186568;23;20018;-75
2023/07/26 11:50:40;;;;;;;3.83;2.80;;;20.50;96.80;;;;;;6213370;23;20415;-75
2023/07/26 11:53:07;;;;;;;4.95;3.75;;;20.50;96.40;;;;;;6212023;23;20019;-75
2023/07/26 11:55:34;;;;;;;5.30;3.45;;;20.50;96.20;;;;;;6213453;23;20001;-75
2023/07/26 11:58:03;;;;;;;3.92;2.83;;;20.50;96.10;;;;;;6185688;23;20001;-76
2023/07/26 12:00:33;;;;;;;4.97;2.58;;;20.50;95.70;;;;;;6213063;23;20011;-75
2023/07/26 12:03:04;;;;;;;4.30;2.72;;;20.70;95.50;;;;;;6186521;23;20456;-75
2023/07/26 12:05:30;;;;;;;3.85;2.42;;;20.80;95.40;;;;;;6186360;23;20086;-75
2023/07/26 12:07:58;;;;;;;4.45;2.60;;;20.90;95.10;;;;;;6212431;23;20000;-74
2023/07/26 12:10:35;;;;;;;3.83;2.08;;;20.90;94.40;;;;;;6212938;23;20489;-76
2023/07/26 12:13:08;;;;;;;3.60;2.40;;;20.90;93.90;;;;;;6211812;23;20004;-75
2023/07/26 12:15:59;;;;;;;3.33;2.75;;;20.90;93.60;;;;;;6213128;23;20016;-76
2023/07/26 12:18:26;;;;;;;4.65;2.38;;;20.90;93.10;;;;;;6212673;23;20009;-74
2023/07/26 12:21:03;;;;;;;3.15;2.20;;;20.90;92.90;;;;;;6185440;23;20012;-74
2023/07/26 12:23:51;;;;;;;5.90;2.40;;;21.00;92.50;;;;;;6213118;23;20028;-74
2023/07/26 12:26:22;;;;;;;4.18;1.63;;;21.20;92.40;;;;;;6213268;23;20004;-74
2023/07/26 12:28:49;;;;;;;3.03;1.85;;;21.30;92.30;;;;;;6212959;23;20028;-74
2023/07/26 12:31:26;;;;;;;2.95;2.22;;;21.40;91.60;;;;;;6212645;23;20003;-74
2023/07/26 12:34:12;;;;;;;2.85;1.70;;;21.40;90.90;;;;;;6212642;23;20505;-75
2023/07/26 12:36:40;;;;;;;3.83;1.58;;;21.40;90.70;;;;;;6212333;23;19993;-74
2023/07/26 12:39:10;;;;;;;4.97;2.30;;;21.30;90.50;;;;;;6185752;23;20005;-75
2023/07/26 12:41:39;;;;;;;2.90;1.70;;;21.20;90.30;;;;;;6212697;23;20005;-75